TimePST,TemperatureF,Dew PointF,Humidity,Sea Level PressureIn,VisibilityMPH,Wind Direction,Wind SpeedMPH,Gust SpeedMPH,PrecipitationIn,Events,Conditions,WindDirDegrees,DateUTC
12:53 AM,57.9,51.1,78,30.13,10.0,Calm,Calm,-,N/A,,Mostly Cloudy,0,2012-12-05 08:53:00
1:53 AM,62.1,53.1,72,30.12,10.0,SW,11.5,-,N/A,,Mostly Cloudy,230,2012-12-05 09:53:00
2:35 AM,60.8,53.6,77,30.14,10.0,WSW,10.4,-,N/A,,Overcast,240,2012-12-05 10:35:00
2:51 AM,62.6,53.6,72,30.13,10.0,SW,10.4,-,N/A,,Mostly Cloudy,220,2012-12-05 10:51:00
2:53 AM,62.1,54.0,75,30.13,10.0,SW,10.4,-,N/A,,Mostly Cloudy,220,2012-12-05 10:53:00
3:20 AM,62.6,55.4,77,30.13,10.0,SW,8.1,-,N/A,,Mostly Cloudy,230,2012-12-05 11:20:00
3:53 AM,62.1,55.0,78,30.12,10.0,Calm,Calm,-,N/A,,Overcast,0,2012-12-05 11:53:00
4:53 AM,63.0,55.9,78,30.11,10.0,Calm,Calm,-,N/A,,Overcast,0,2012-12-05 12:53:00
6:53 AM,60.1,57.0,90,30.14,2.5,Calm,Calm,-,0.06,Rain,Heavy Rain,0,2012-12-05 14:53:00
7:01 AM,60.8,57.2,88,30.14,2.5,WNW,3.5,-,0.03,Rain,Rain,290,2012-12-05 15:01:00
7:17 AM,59.0,57.2,94,30.14,1.5,West,3.5,-,0.14,Rain,Heavy Rain,280,2012-12-05 15:17:00
7:29 AM,59.0,57.2,94,30.15,2.0,Calm,Calm,-,0.19,Rain,Rain,0,2012-12-05 15:29:00
7:53 AM,59.0,57.9,96,30.14,5.0,Calm,Calm,-,0.29,Rain,Rain,0,2012-12-05 15:53:00
8:32 AM,59.0,59.0,100,30.15,8.0,North,4.6,-,0.06,Rain,Light Rain,360,2012-12-05 16:32:00
8:53 AM,60.1,59.0,96,30.15,10.0,Calm,Calm,-,0.07,,Overcast,0,2012-12-05 16:53:00
9:53 AM,61.0,59.0,93,30.16,10.0,Calm,Calm,-,0.02,Rain,Light Rain,0,2012-12-05 17:53:00
10:46 AM,62.6,59.0,88,30.15,10.0,Calm,Calm,-,0.00,,Overcast,0,2012-12-05 18:46:00
10:53 AM,62.1,59.0,90,30.15,10.0,Calm,Calm,-,0.00,Rain,Light Rain,0,2012-12-05 18:53:00
11:44 AM,62.6,60.8,94,30.14,2.0,Calm,Calm,-,0.01,Rain,Light Rain,0,2012-12-05 19:44:00
12:28 PM,60.8,60.8,100,30.12,3.0,Calm,Calm,-,0.06,Rain,Light Rain,0,2012-12-05 20:28:00
12:41 PM,62.6,60.8,94,30.11,3.0,Calm,Calm,-,0.06,,Overcast,0,2012-12-05 20:41:00
12:53 PM,62.1,60.1,93,30.11,6.0,Calm,Calm,-,0.06,,Overcast,0,2012-12-05 20:53:00
1:31 PM,62.6,60.8,94,30.10,7.0,Calm,Calm,-,N/A,,Overcast,0,2012-12-05 21:31:00
1:53 PM,64.0,61.0,90,30.08,10.0,Variable,3.5,-,N/A,,Overcast,0,2012-12-05 21:53:00
2:46 PM,60.8,59.0,94,30.09,3.0,ENE,8.1,-,N/A,,Overcast,70,2012-12-05 22:46:00
2:53 PM,61.0,59.0,93,30.08,3.0,ENE,9.2,-,N/A,,Overcast,70,2012-12-05 22:53:00
3:00 PM,60.8,59.0,94,30.09,4.0,ENE,8.1,-,N/A,,Overcast,60,2012-12-05 23:00:00
3:07 PM,60.8,59.0,94,30.09,2.0,ENE,8.1,-,N/A,,Overcast,60,2012-12-05 23:07:00
3:31 PM,59.0,57.2,94,30.09,1.8,ENE,6.9,-,0.01,,Overcast,60,2012-12-05 23:31:00
3:53 PM,59.0,57.9,96,30.09,1.5,ENE,5.8,-,0.01,,Overcast,70,2012-12-05 23:53:00
4:53 PM,57.9,57.0,97,30.09,1.5,ENE,5.8,-,N/A,,Overcast,70,2012-12-06 00:53:00
5:53 PM,57.9,57.0,97,30.10,1.2,Variable,5.8,-,N/A,,Overcast,0,2012-12-06 01:53:00
6:00 PM,57.2,57.2,100,30.11,3.0,Calm,Calm,-,N/A,,Overcast,0,2012-12-06 02:00:00
6:07 PM,57.2,57.2,100,30.11,1.2,Calm,Calm,-,N/A,,Overcast,0,2012-12-06 02:07:00
6:53 PM,57.9,57.0,97,30.11,2.0,Calm,Calm,-,N/A,,Overcast,0,2012-12-06 02:53:00
7:53 PM,57.0,55.9,96,30.12,2.0,ENE,6.9,-,N/A,,Overcast,60,2012-12-06 03:53:00
8:53 PM,57.0,55.0,93,30.13,2.0,ENE,4.6,-,N/A,,Overcast,70,2012-12-06 04:53:00
9:53 PM,55.9,54.0,93,30.13,2.0,ENE,4.6,-,N/A,,Overcast,70,2012-12-06 05:53:00
10:00 PM,55.4,53.6,94,30.12,8.0,ENE,5.8,-,N/A,,Overcast,70,2012-12-06 06:00:00
10:53 PM,55.9,54.0,93,30.12,7.0,ENE,3.5,-,N/A,,Overcast,70,2012-12-06 06:53:00
11:53 PM,55.9,54.0,93,30.13,4.0,Calm,Calm,-,N/A,,Overcast,0,2012-12-06 07:53:00